createdAt,value
2023-02-03T00:00:07.382Z,1.85
2023-02-03T00:02:34.094Z,1.40
2023-02-03T00:05:08.535Z,1.77
2023-02-03T00:07:36.769Z,1.52
2023-02-03T00:10:04.675Z,1.25
2023-02-03T00:12:35.312Z,1.80
2023-02-03T00:15:02.216Z,2.25
2023-02-03T00:17:29.263Z,1.60
2023-02-03T00:19:56.296Z,2.30
2023-02-03T00:22:23.040Z,1.58
2023-02-03T00:24:50.049Z,2.00
2023-02-03T00:27:16.745Z,1.88
2023-02-03T00:29:45.491Z,1.95
2023-02-03T00:32:12.399Z,2.17
2023-02-03T00:34:39.606Z,1.92
2023-02-03T00:37:06.339Z,1.63
2023-02-03T00:39:33.106Z,1.65
2023-02-03T00:41:59.994Z,1.30
2023-02-03T00:44:26.788Z,1.55
2023-02-03T00:46:55.053Z,1.65
2023-02-03T00:49:21.783Z,2.03
2023-02-03T00:51:49.268Z,1.58
2023-02-03T00:54:16.569Z,1.73
2023-02-03T00:56:43.424Z,1.90
2023-02-03T00:59:10.572Z,1.85
2023-02-03T01:01:42.045Z,3.13
2023-02-03T01:04:17.092Z,1.83
2023-02-03T01:06:43.813Z,2.85
2023-02-03T01:09:10.524Z,2.40
2023-02-03T01:11:37.367Z,2.17
2023-02-03T01:14:04.774Z,1.88
2023-02-03T01:16:32.949Z,1.92
2023-02-03T01:18:59.753Z,2.65
2023-02-03T01:21:28.016Z,1.88
2023-02-03T01:23:54.871Z,2.33
2023-02-03T01:26:23.412Z,2.42
2023-02-03T01:28:53.723Z,1.92
2023-02-03T01:31:23.530Z,2.00
2023-02-03T01:33:52.917Z,2.00
2023-02-03T01:36:20.320Z,2.70
2023-02-03T01:38:49.004Z,1.92
2023-02-03T01:41:17.621Z,2.08
2023-02-03T01:43:47.521Z,2.10
2023-02-03T01:46:25.682Z,2.65
2023-02-03T01:48:55.379Z,2.20
2023-02-03T01:51:22.921Z,2.38
2023-02-03T01:53:54.196Z,2.30
2023-02-03T01:56:22.081Z,1.85
2023-02-03T01:58:50.951Z,2.38
2023-02-03T02:01:19.690Z,1.95
2023-02-03T02:03:52.398Z,2.65
2023-02-03T02:06:19.389Z,2.10
2023-02-03T02:08:50.158Z,2.05
2023-02-03T02:11:18.688Z,2.20
2023-02-03T02:13:46.622Z,2.70
2023-02-03T02:16:18.215Z,2.05
2023-02-03T02:18:57.330Z,1.77
2023-02-03T02:21:59.743Z,1.88
2023-02-03T02:25:11.175Z,2.00
2023-02-03T02:28:09.979Z,2.13
2023-02-03T02:31:02.591Z,2.17
2023-02-03T02:33:38.906Z,2.33
2023-02-03T02:36:15.269Z,3.05
2023-02-03T02:38:52.227Z,2.25
2023-02-03T02:41:26.424Z,2.28
2023-02-03T02:44:01.158Z,2.22
2023-02-03T02:46:33.029Z,2.90
2023-02-03T02:49:07.564Z,2.45
2023-02-03T02:51:36.324Z,2.67
2023-02-03T02:54:07.447Z,2.30
2023-02-03T02:56:36.843Z,2.28
2023-02-03T02:59:06.122Z,2.40
2023-02-03T03:01:33.750Z,2.65
2023-02-03T03:04:05.649Z,2.03
2023-02-03T03:06:37.222Z,2.58
2023-02-03T03:09:08.043Z,2.83
2023-02-03T03:11:41.244Z,2.38
2023-02-03T03:14:12.015Z,2.33
2023-02-03T03:16:44.820Z,2.67
2023-02-03T03:19:15.411Z,2.22
2023-02-03T03:21:47.507Z,3.28
2023-02-03T03:24:18.836Z,2.75
2023-02-03T03:26:52.467Z,3.15
2023-02-03T03:29:24.292Z,2.45
2023-02-03T03:31:51.440Z,2.88
2023-02-03T03:34:20.062Z,2.30
2023-02-03T03:36:54.010Z,2.35
2023-02-03T03:39:28.272Z,2.40
2023-02-03T03:42:02.965Z,2.75
2023-02-03T03:44:35.781Z,2.15
2023-02-03T03:47:09.444Z,2.53
2023-02-03T03:49:41.178Z,2.03
2023-02-03T03:52:10.618Z,2.28
2023-02-03T03:54:40.008Z,2.55
2023-02-03T03:57:13.706Z,2.03
2023-02-03T03:59:44.409Z,1.90
2023-02-03T04:02:13.207Z,3.28
2023-02-03T04:04:42.636Z,2.40
2023-02-03T04:07:09.342Z,2.33
2023-02-03T04:09:36.137Z,1.88
2023-02-03T04:12:02.949Z,2.22
2023-02-03T04:14:30.191Z,2.03
2023-02-03T04:16:57.019Z,1.77
2023-02-03T04:19:24.051Z,2.28
2023-02-03T04:21:52.183Z,2.88
2023-02-03T04:24:19.231Z,2.53
2023-02-03T04:26:48.182Z,2.97
2023-02-03T04:29:15.426Z,2.97
2023-02-03T04:31:42.240Z,2.60
2023-02-03T04:34:10.212Z,2.40
2023-02-03T04:36:37.048Z,2.28
2023-02-03T04:39:05.224Z,2.58
2023-02-03T04:41:32.463Z,2.97
2023-02-03T04:43:59.341Z,2.45
2023-02-03T04:46:26.394Z,2.40
2023-02-03T04:48:53.148Z,2.60
2023-02-03T04:51:19.861Z,2.58
2023-02-03T04:53:46.579Z,2.42
2023-02-03T04:56:17.607Z,2.10
2023-02-03T04:58:44.937Z,2.47
2023-02-03T05:01:11.843Z,3.33
2023-02-03T05:03:40.456Z,3.38
2023-02-03T05:06:07.277Z,2.20
2023-02-03T05:08:34.531Z,2.05
2023-02-03T05:11:02.355Z,2.53
2023-02-03T05:13:31.570Z,2.22
2023-02-03T05:15:58.476Z,2.13
2023-02-03T05:18:25.287Z,2.58
2023-02-03T05:20:54.610Z,2.00
2023-02-03T05:23:22.031Z,2.47
2023-02-03T05:25:49.092Z,2.58
2023-02-03T05:28:16.934Z,2.30
2023-02-03T05:30:46.000Z,2.72
2023-02-03T05:33:13.160Z,2.47
2023-02-03T05:35:39.974Z,3.15
2023-02-03T05:38:06.983Z,2.70
2023-02-03T05:40:33.742Z,2.85
2023-02-03T05:43:00.577Z,2.15
2023-02-03T05:45:28.391Z,2.95
2023-02-03T05:47:56.609Z,2.88
2023-02-03T05:50:23.734Z,2.55
2023-02-03T05:52:52.979Z,2.75
2023-02-03T05:55:19.780Z,3.20
2023-02-03T05:57:46.495Z,3.45
2023-02-03T06:00:15.730Z,2.42
2023-02-03T06:02:43.658Z,3.15
2023-02-03T06:05:11.898Z,2.95
2023-02-03T06:07:48.618Z,2.97
2023-02-03T06:10:19.424Z,3.40
2023-02-03T06:12:46.293Z,3.17
2023-02-03T06:15:14.203Z,3.88
2023-02-03T06:17:44.782Z,3.50
2023-02-03T06:20:16.107Z,3.73
2023-02-03T06:25:12.911Z,2.85
2023-02-03T06:27:40.060Z,3.58
2023-02-03T06:30:07.820Z,3.35
2023-02-03T06:32:35.269Z,3.13
2023-02-03T06:35:01.992Z,3.28
2023-02-03T06:37:30.374Z,3.63
2023-02-03T06:39:57.204Z,4.10
2023-02-03T06:42:23.962Z,3.78
2023-02-03T06:44:50.867Z,3.63
2023-02-03T06:47:17.704Z,3.35
2023-02-03T06:49:45.867Z,3.35
2023-02-03T06:52:12.610Z,3.45
2023-02-03T06:54:41.487Z,2.97
2023-02-03T06:57:08.280Z,3.83
2023-02-03T06:59:35.440Z,3.78
2023-02-03T07:02:02.965Z,4.05
2023-02-03T07:04:30.142Z,3.88
2023-02-03T07:06:56.947Z,4.03
2023-02-03T07:09:27.881Z,3.55
2023-02-03T07:11:58.310Z,2.80
2023-02-03T07:14:25.584Z,3.42
2023-02-03T07:17:01.492Z,3.47
2023-02-03T07:19:39.494Z,3.60
2023-02-03T07:22:06.522Z,3.28
2023-02-03T07:24:33.580Z,3.08
2023-02-03T07:27:04.335Z,3.75
2023-02-03T07:29:55.073Z,3.47
2023-02-03T07:32:37.809Z,3.42
2023-02-03T07:35:05.449Z,3.72
2023-02-03T07:37:32.398Z,3.47
2023-02-03T07:39:59.128Z,2.92
2023-02-03T07:42:29.661Z,4.07
2023-02-03T07:44:56.552Z,3.63
2023-02-03T07:47:23.690Z,3.97
2023-02-03T07:49:50.711Z,4.15
2023-02-03T07:52:22.096Z,3.53
2023-02-03T07:57:15.760Z,4.22
2023-02-03T07:59:44.254Z,3.65
2023-02-03T08:02:11.014Z,3.38
2023-02-03T08:04:38.001Z,4.18
2023-02-03T08:07:05.536Z,4.60
2023-02-03T08:09:32.530Z,4.43
2023-02-03T08:11:59.307Z,3.63
2023-02-03T08:14:26.102Z,3.28
2023-02-03T08:16:54.285Z,4.07
2023-02-03T08:19:23.075Z,4.88
2023-02-03T08:21:50.041Z,4.55
2023-02-03T08:24:17.119Z,4.03
2023-02-03T08:26:44.249Z,4.25
2023-02-03T08:29:11.046Z,4.25
2023-02-03T08:31:38.277Z,4.93
2023-02-03T08:34:07.925Z,4.15
2023-02-03T08:36:38.183Z,4.63
2023-02-03T08:39:04.921Z,5.53
2023-02-03T08:41:34.022Z,4.38
2023-02-03T08:44:02.863Z,4.88
2023-02-03T08:46:29.628Z,6.30
2023-02-03T08:48:56.635Z,5.78
2023-02-03T08:51:24.925Z,5.25
2023-02-03T08:53:52.291Z,4.78
2023-02-03T08:56:19.940Z,6.18
2023-02-03T08:58:46.690Z,5.18
2023-02-03T09:01:15.352Z,4.57
2023-02-03T09:03:42.460Z,4.72
2023-02-03T09:06:10.574Z,5.50
2023-02-03T09:08:39.381Z,6.30
2023-02-03T09:11:24.348Z,5.97
2023-02-03T09:14:03.444Z,5.50
2023-02-03T09:19:26.813Z,4.30
2023-02-03T09:22:04.960Z,6.15
2023-02-03T09:24:46.353Z,4.60
2023-02-03T09:27:28.609Z,4.97
2023-02-03T09:33:09.507Z,5.63
2023-02-03T09:39:09.289Z,6.32
2023-02-03T09:44:29.642Z,5.00
2023-02-03T09:47:04.450Z,5.60
2023-02-03T09:49:39.300Z,5.80
2023-02-03T09:52:14.048Z,4.28
2023-02-03T09:54:47.344Z,6.00
2023-02-03T09:57:21.296Z,5.15
2023-02-03T09:59:49.304Z,4.95
2023-02-03T10:02:34.280Z,5.22
2023-02-03T10:05:17.504Z,5.25
2023-02-03T10:07:56.675Z,4.97
2023-02-03T10:18:34.290Z,5.47
2023-02-03T10:31:17.453Z,5.90
2023-02-03T10:35:10.916Z,5.63
2023-02-03T10:41:43.698Z,5.97
2023-02-03T10:48:09.806Z,6.30
2023-02-03T10:51:24.497Z,5.78
2023-02-03T11:13:17.709Z,6.72
2023-02-03T11:15:26.402Z,7.10
2023-02-03T11:17:55.759Z,5.90
2023-02-03T11:20:22.936Z,7.07
2023-02-03T11:22:51.385Z,6.82
2023-02-03T11:25:21.414Z,6.38
2023-02-03T11:27:48.370Z,6.88
2023-02-03T11:30:20.539Z,6.35
2023-02-03T11:32:48.863Z,7.50
2023-02-03T11:35:18.878Z,7.90
2023-02-03T11:37:47.253Z,7.63
2023-02-03T11:40:30.746Z,7.45
2023-02-03T11:43:14.552Z,6.82
2023-02-03T11:45:44.646Z,6.85
2023-02-03T11:48:23.212Z,6.57
2023-02-03T11:50:58.663Z,7.57
2023-02-03T11:53:56.556Z,6.82
2023-02-03T11:56:40.623Z,7.90
2023-02-03T11:59:44.762Z,7.10
2023-02-03T12:02:35.508Z,7.00
2023-02-03T12:05:26.443Z,7.70
2023-02-03T12:08:09.621Z,6.63
2023-02-03T12:10:46.558Z,7.70
2023-02-03T12:13:31.162Z,7.25
2023-02-03T12:16:14.300Z,8.63
2023-02-03T12:18:51.373Z,7.45
2023-02-03T12:21:42.998Z,8.63
2023-02-03T12:26:50.633Z,7.55
2023-02-03T12:29:22.396Z,7.13
2023-02-03T12:32:02.025Z,7.55
2023-02-03T12:34:36.410Z,7.93
2023-02-03T12:37:08.793Z,6.75
2023-02-03T12:39:44.611Z,6.55
2023-02-03T12:42:18.628Z,6.82
2023-02-03T12:44:50.843Z,7.10
2023-02-03T12:47:26.355Z,6.03
2023-02-03T12:49:57.842Z,6.03
2023-02-03T12:52:30.655Z,6.32
2023-02-03T12:55:06.778Z,8.18
2023-02-03T12:57:40.442Z,7.85
2023-02-03T13:00:20.770Z,8.05
2023-02-03T13:03:00.358Z,8.55
2023-02-03T13:05:34.090Z,8.60
2023-02-03T13:08:11.965Z,7.25
2023-02-03T13:10:47.044Z,7.60
2023-02-03T13:13:20.733Z,8.43
2023-02-03T13:15:51.092Z,9.05
2023-02-03T13:18:25.101Z,7.10
2023-02-03T13:20:52.435Z,7.13
2023-02-03T13:23:19.763Z,7.57
2023-02-03T13:26:03.554Z,7.18
2023-02-03T13:28:47.430Z,6.80
2023-02-03T13:31:29.936Z,5.35
2023-02-03T13:34:47.293Z,7.35
2023-02-03T13:37:46.590Z,5.63
2023-02-03T13:40:29.524Z,5.55
2023-02-03T13:43:00.944Z,7.05
2023-02-03T13:45:31.101Z,5.90
2023-02-03T13:48:07.989Z,6.43
2023-02-03T13:54:02.747Z,6.60
2023-02-03T13:56:31.622Z,6.72
2023-02-03T13:59:05.714Z,6.68
2023-02-03T14:01:38.087Z,6.50
2023-02-03T14:04:08.023Z,5.60
2023-02-03T14:07:01.011Z,6.15
2023-02-03T14:09:41.804Z,5.20
2023-02-03T14:12:32.313Z,6.13
2023-02-03T14:15:01.601Z,5.57
2023-02-03T14:18:02.245Z,5.30
2023-02-03T14:20:51.955Z,5.47
2023-02-03T14:23:25.074Z,6.93
2023-02-03T14:25:56.637Z,5.55
2023-02-03T14:28:29.773Z,4.55
2023-02-03T14:31:20.808Z,5.43
2023-02-03T14:33:57.347Z,4.50
2023-02-03T14:36:35.699Z,6.05
2023-02-03T14:39:21.529Z,4.15
2023-02-03T14:41:56.726Z,4.40
2023-02-03T14:44:35.896Z,4.30
2023-02-03T14:47:12.039Z,3.95
2023-02-03T14:49:52.335Z,3.88
2023-02-03T14:52:53.628Z,4.82
2023-02-03T14:55:45.887Z,3.95
2023-02-03T14:58:23.518Z,5.40
2023-02-03T15:00:50.705Z,3.70
2023-02-03T15:03:22.460Z,3.95
2023-02-03T15:05:51.649Z,4.93
2023-02-03T15:08:41.751Z,4.97
2023-02-03T15:11:24.990Z,4.65
2023-02-03T15:13:52.321Z,4.55
2023-02-03T15:16:21.170Z,4.07
2023-02-03T15:18:55.353Z,4.50
2023-02-03T15:21:22.290Z,5.45
2023-02-03T15:23:55.895Z,4.50
2023-02-03T15:26:24.387Z,4.78
2023-02-03T15:28:55.051Z,5.03
2023-02-03T15:31:26.838Z,4.80
2023-02-03T15:33:57.551Z,4.95
2023-02-03T15:36:32.653Z,5.85
2023-02-03T15:39:11.032Z,6.80
2023-02-03T15:41:43.570Z,6.47
2023-02-03T15:44:22.267Z,6.65
2023-02-03T15:46:52.438Z,7.68
2023-02-03T15:49:26.335Z,6.90
2023-02-03T15:51:58.174Z,7.13
2023-02-03T15:54:30.654Z,7.40
2023-02-03T15:57:00.849Z,8.05
2023-02-03T15:59:35.754Z,7.07
2023-02-03T16:02:19.666Z,8.25
2023-02-03T16:04:47.455Z,6.88
2023-02-03T16:07:20.993Z,6.97
2023-02-03T16:09:52.758Z,7.30
2023-02-03T16:12:23.844Z,6.68
2023-02-03T16:14:51.599Z,6.13
2023-02-03T16:17:26.144Z,5.93
2023-02-03T16:20:20.164Z,5.72
2023-02-03T16:23:00.513Z,6.25
2023-02-03T16:25:30.952Z,6.22
2023-02-03T16:28:00.661Z,6.20
2023-02-03T16:30:27.557Z,5.85
2023-02-03T16:33:02.650Z,5.32
2023-02-03T16:35:29.934Z,6.78
2023-02-03T16:38:12.624Z,5.20
2023-02-03T16:40:41.569Z,6.28
2023-02-03T16:43:12.838Z,5.90
2023-02-03T16:45:42.862Z,6.38
2023-02-03T16:48:11.266Z,5.63
2023-02-03T16:50:39.713Z,6.72
2023-02-03T16:53:13.213Z,5.78
2023-02-03T16:55:43.653Z,6.47
2023-02-03T16:58:10.476Z,7.20
2023-02-03T17:00:37.485Z,6.80
2023-02-03T17:03:07.695Z,7.20
2023-02-03T17:05:38.193Z,6.10
2023-02-03T17:08:06.654Z,7.53
2023-02-03T17:10:33.659Z,6.32
2023-02-03T17:13:09.583Z,6.82
2023-02-03T17:15:40.667Z,6.85
2023-02-03T17:18:07.455Z,6.75
2023-02-03T17:20:34.787Z,6.82
2023-02-03T17:23:01.648Z,5.75
2023-02-03T17:25:33.806Z,7.57
2023-02-03T17:28:02.294Z,8.18
2023-02-03T17:30:29.272Z,8.52
2023-02-03T17:32:59.084Z,8.25
2023-02-03T17:35:26.429Z,7.45
2023-02-03T17:37:53.280Z,6.97
2023-02-03T17:54:10.675Z,7.65
2023-02-03T17:56:37.697Z,7.27
2023-02-03T17:59:06.073Z,8.13
2023-02-03T18:01:33.576Z,8.30
2023-02-03T18:04:03.276Z,7.22
2023-02-03T18:06:31.255Z,8.30
2023-02-03T18:08:58.009Z,7.78
2023-02-03T18:11:24.833Z,8.90
2023-02-03T18:13:51.564Z,6.95
2023-02-03T18:16:22.535Z,6.72
2023-02-03T18:18:49.471Z,8.23
2023-02-03T18:21:17.133Z,7.63
2023-02-03T18:23:46.025Z,6.90
2023-02-03T18:26:13.424Z,8.13
2023-02-03T18:28:41.183Z,7.20
2023-02-03T18:31:09.998Z,6.60
2023-02-03T18:33:38.879Z,8.55
2023-02-03T18:36:06.685Z,9.10
2023-02-03T18:38:36.072Z,9.10
2023-02-03T18:41:04.960Z,7.72
2023-02-03T18:43:31.817Z,8.20
2023-02-03T18:45:58.868Z,6.85
2023-02-03T18:48:25.995Z,7.40
2023-02-03T18:50:54.238Z,8.43
2023-02-03T18:53:21.151Z,6.45
2023-02-03T18:55:47.887Z,7.20
2023-02-03T18:58:14.721Z,6.82
2023-02-03T19:00:41.524Z,8.73
2023-02-03T19:03:08.235Z,7.28
2023-02-03T19:05:35.005Z,6.63
2023-02-03T19:08:03.327Z,7.68
2023-02-03T19:10:30.678Z,7.80
2023-02-03T19:12:57.934Z,6.55
2023-02-03T19:15:25.189Z,7.72
2023-02-03T19:17:52.274Z,9.23
2023-02-03T19:20:19.656Z,12.23
2023-02-03T19:22:46.431Z,9.60
2023-02-03T19:25:15.752Z,8.65
2023-02-03T19:27:42.746Z,9.35
2023-02-03T19:30:11.244Z,8.32
2023-02-03T19:32:38.054Z,5.97
2023-02-03T19:35:05.539Z,7.18
2023-02-03T19:37:35.388Z,6.88
2023-02-03T19:40:06.083Z,6.65
2023-02-03T19:42:35.188Z,7.18
2023-02-03T19:45:02.071Z,8.48
2023-02-03T19:47:31.222Z,8.40
2023-02-03T19:49:58.003Z,10.23
2023-02-03T19:52:24.915Z,8.63
2023-02-03T19:54:51.775Z,8.95
2023-02-03T19:57:18.539Z,9.63
2023-02-03T19:59:46.819Z,8.85
2023-02-03T20:02:14.721Z,7.10
2023-02-03T20:04:47.813Z,8.05
2023-02-03T20:07:14.701Z,7.40
2023-02-03T20:09:41.887Z,7.65
2023-02-03T20:12:08.966Z,7.22
2023-02-03T20:14:36.173Z,7.35
2023-02-03T20:17:06.382Z,8.00
2023-02-03T20:19:34.526Z,6.40
2023-02-03T20:22:01.476Z,6.43
2023-02-03T20:24:30.117Z,6.97
2023-02-03T20:26:56.890Z,6.75
2023-02-03T20:29:23.790Z,7.00
2023-02-03T20:31:52.968Z,7.45
2023-02-03T20:34:21.310Z,6.50
2023-02-03T20:36:49.488Z,6.88
2023-02-03T20:39:19.190Z,6.50
2023-02-03T20:41:50.686Z,7.15
2023-02-03T20:44:21.136Z,7.68
2023-02-03T20:46:48.352Z,12.38
2023-02-03T20:49:17.026Z,11.73
2023-02-03T20:51:48.440Z,7.53
2023-02-03T20:56:43.755Z,7.07
2023-02-03T20:59:13.040Z,6.80
2023-02-03T21:01:40.427Z,6.30
2023-02-03T21:04:17.790Z,6.88
2023-02-03T21:06:53.718Z,6.68
2023-02-03T21:09:22.884Z,7.30
2023-02-03T21:11:51.890Z,6.80
2023-02-03T21:14:20.542Z,7.13
2023-02-03T21:16:47.573Z,5.05
2023-02-03T21:19:23.104Z,6.10
2023-02-03T21:21:51.600Z,6.97
2023-02-03T21:24:24.744Z,5.97
2023-02-03T21:26:51.914Z,6.70
2023-02-03T21:29:24.366Z,6.57
2023-02-03T21:31:52.806Z,5.38
2023-02-03T21:34:27.253Z,5.78
2023-02-03T21:36:57.013Z,6.60
2023-02-03T21:39:29.946Z,6.80
2023-02-03T21:42:17.041Z,6.00
2023-02-03T21:44:46.962Z,6.15
2023-02-03T21:47:20.904Z,6.57
2023-02-03T21:49:52.900Z,6.63
2023-02-03T21:52:21.307Z,6.40
2023-02-03T21:54:48.194Z,5.85
2023-02-03T21:57:16.133Z,6.47
2023-02-03T21:59:43.187Z,7.72
2023-02-03T22:02:50.604Z,6.13
2023-02-03T22:05:17.613Z,6.03
2023-02-03T22:07:45.818Z,6.70
2023-02-03T22:10:15.500Z,6.70
2023-02-03T22:12:42.238Z,7.10
2023-02-03T22:15:09.704Z,6.57
2023-02-03T22:17:38.703Z,7.30
2023-02-03T22:20:06.755Z,7.65
2023-02-03T22:22:35.881Z,7.75
2023-02-03T22:25:04.544Z,7.93
2023-02-03T22:27:31.458Z,8.70
2023-02-03T22:29:58.281Z,7.13
2023-02-03T22:32:25.002Z,7.65
2023-02-03T22:34:52.037Z,8.75
2023-02-03T22:37:18.745Z,8.73
2023-02-03T22:39:45.667Z,9.10
2023-02-03T22:42:13.820Z,9.02
2023-02-03T22:44:40.499Z,8.60
2023-02-03T22:47:07.209Z,8.25
2023-02-03T22:49:33.977Z,8.40
2023-02-03T22:52:01.009Z,7.93
2023-02-03T22:54:27.806Z,7.57
2023-02-03T22:56:54.563Z,7.78
2023-02-03T22:59:22.914Z,7.00
2023-02-03T23:01:49.662Z,6.95
2023-02-03T23:04:16.603Z,7.63
2023-02-03T23:06:43.553Z,8.73
2023-02-03T23:09:10.420Z,8.73
2023-02-03T23:11:37.369Z,8.00
2023-02-03T23:14:04.753Z,8.18
2023-02-03T23:16:33.647Z,8.00
2023-02-03T23:19:00.784Z,7.82
2023-02-03T23:21:27.694Z,8.65
2023-02-03T23:23:54.775Z,7.47
2023-02-03T23:26:21.916Z,7.65
2023-02-03T23:28:50.135Z,9.25
2023-02-03T23:31:18.419Z,7.28
2023-02-03T23:33:46.955Z,8.05
2023-02-03T23:36:13.761Z,7.20
2023-02-03T23:38:41.340Z,7.93
2023-02-03T23:41:08.494Z,8.40
2023-02-03T23:43:35.314Z,7.80
2023-02-03T23:46:02.130Z,7.72
2023-02-03T23:48:29.110Z,8.18
2023-02-03T23:50:57.400Z,7.00
2023-02-03T23:53:24.114Z,6.65
2023-02-03T23:55:50.898Z,7.78
2023-02-03T23:58:17.933Z,8.18
